sensor_id;sensor_type;location;lat;lon;timestamp;temperature;humidity
20504;DHT22;10410;51.046;6.980;2023-09-30T00:02:44;12.70;99.90
20504;DHT22;10410;51.046;6.980;2023-09-30T00:09:45;12.60;99.90
20504;DHT22;10410;51.046;6.980;2023-09-30T00:16:45;12.50;99.90
20504;DHT22;10410;51.046;6.980;2023-09-30T00:23:46;12.40;99.90
20504;DHT22;10410;51.046;6.980;2023-09-30T00:30:46;12.20;99.90
20504;DHT22;10410;51.046;6.980;2023-09-30T00:37:48;12.20;99.90
20504;DHT22;10410;51.046;6.980;2023-09-30T00:44:48;12.10;99.90
20504;DHT22;10410;51.046;6.980;2023-09-30T00:51:49;12.10;99.90
20504;DHT22;10410;51.046;6.980;2023-09-30T00:58:50;12.20;99.90
20504;DHT22;10410;51.046;6.980;2023-09-30T01:05:51;12.30;99.90
20504;DHT22;10410;51.046;6.980;2023-09-30T01:12:52;12.20;99.90
20504;DHT22;10410;51.046;6.980;2023-09-30T01:19:53;12.20;99.90
20504;DHT22;10410;51.046;6.980;2023-09-30T01:26:54;12.20;99.90
20504;DHT22;10410;51.046;6.980;2023-09-30T01:33:54;12.30;99.90
20504;DHT22;10410;51.046;6.980;2023-09-30T01:40:57;12.30;99.90
20504;DHT22;10410;51.046;6.980;2023-09-30T01:48:02;12.30;99.90
20504;DHT22;10410;51.046;6.980;2023-09-30T01:55:03;12.30;99.90
20504;DHT22;10410;51.046;6.980;2023-09-30T02:02:03;12.30;99.90
20504;DHT22;10410;51.046;6.980;2023-09-30T02:09:04;12.40;99.90
20504;DHT22;10410;51.046;6.980;2023-09-30T02:16:12;12.30;99.90
20504;DHT22;10410;51.046;6.980;2023-09-30T02:23:13;12.20;99.90
20504;DHT22;10410;51.046;6.980;2023-09-30T02:30:16;12.10;99.90
20504;DHT22;10410;51.046;6.980;2023-09-30T02:37:16;12.00;99.90
20504;DHT22;10410;51.046;6.980;2023-09-30T02:44:18;12.00;99.90
20504;DHT22;10410;51.046;6.980;2023-09-30T02:51:19;12.00;99.90
20504;DHT22;10410;51.046;6.980;2023-09-30T02:58:19;12.00;99.90
20504;DHT22;10410;51.046;6.980;2023-09-30T03:05:20;12.00;99.90
20504;DHT22;10410;51.046;6.980;2023-09-30T03:12:21;11.90;99.90
20504;DHT22;10410;51.046;6.980;2023-09-30T03:19:21;11.90;99.90
20504;DHT22;10410;51.046;6.980;2023-09-30T03:26:21;11.80;99.90
20504;DHT22;10410;51.046;6.980;2023-09-30T03:33:22;11.70;99.90
20504;DHT22;10410;51.046;6.980;2023-09-30T03:40:22;11.70;99.90
20504;DHT22;10410;51.046;6.980;2023-09-30T03:47:27;11.60;99.90
20504;DHT22;10410;51.046;6.980;2023-09-30T03:54:28;11.60;99.90
20504;DHT22;10410;51.046;6.980;2023-09-30T04:01:28;11.60;99.90
20504;DHT22;10410;51.046;6.980;2023-09-30T04:08:29;11.50;99.90
20504;DHT22;10410;51.046;6.980;2023-09-30T04:15:29;11.50;99.90
20504;DHT22;10410;51.046;6.980;2023-09-30T04:22:31;11.40;99.90
20504;DHT22;10410;51.046;6.980;2023-09-30T04:29:33;11.40;99.90
20504;DHT22;10410;51.046;6.980;2023-09-30T04:36:34;11.40;99.90
20504;DHT22;10410;51.046;6.980;2023-09-30T04:43:35;11.30;99.90
20504;DHT22;10410;51.046;6.980;2023-09-30T04:50:39;11.30;99.90
20504;DHT22;10410;51.046;6.980;2023-09-30T04:57:40;11.20;99.90
20504;DHT22;10410;51.046;6.980;2023-09-30T05:04:41;11.20;99.90
20504;DHT22;10410;51.046;6.980;2023-09-30T05:11:42;11.20;99.90
20504;DHT22;10410;51.046;6.980;2023-09-30T05:18:43;11.10;99.90
20504;DHT22;10410;51.046;6.980;2023-09-30T05:25:44;11.10;99.90
20504;DHT22;10410;51.046;6.980;2023-09-30T05:32:45;11.10;99.90
20504;DHT22;10410;51.046;6.980;2023-09-30T05:39:47;11.10;99.90
20504;DHT22;10410;51.046;6.980;2023-09-30T05:46:49;11.00;99.90
20504;DHT22;10410;51.046;6.980;2023-09-30T05:53:51;11.00;99.90
20504;DHT22;10410;51.046;6.980;2023-09-30T06:00:53;11.10;99.90
20504;DHT22;10410;51.046;6.980;2023-09-30T06:07:53;11.00;99.90
20504;DHT22;10410;51.046;6.980;2023-09-30T06:14:56;11.10;99.90
20504;DHT22;10410;51.046;6.980;2023-09-30T06:21:57;11.10;99.90
20504;DHT22;10410;51.046;6.980;2023-09-30T06:28:57;11.10;99.90
20504;DHT22;10410;51.046;6.980;2023-09-30T06:35:59;11.30;99.90
20504;DHT22;10410;51.046;6.980;2023-09-30T06:43:02;11.30;99.90
20504;DHT22;10410;51.046;6.980;2023-09-30T06:50:05;11.40;99.90
20504;DHT22;10410;51.046;6.980;2023-09-30T06:57:08;11.60;99.90
20504;DHT22;10410;51.046;6.980;2023-09-30T07:04:10;11.70;99.90
20504;DHT22;10410;51.046;6.980;2023-09-30T07:11:12;11.90;99.90
20504;DHT22;10410;51.046;6.980;2023-09-30T07:18:13;12.00;99.90
20504;DHT22;10410;51.046;6.980;2023-09-30T07:25:14;12.20;99.90
20504;DHT22;10410;51.046;6.980;2023-09-30T07:32:16;12.30;99.90
20504;DHT22;10410;51.046;6.980;2023-09-30T07:39:17;12.50;99.90
20504;DHT22;10410;51.046;6.980;2023-09-30T07:46:17;12.70;99.90
20504;DHT22;10410;51.046;6.980;2023-09-30T07:53:18;12.80;99.90
20504;DHT22;10410;51.046;6.980;2023-09-30T08:00:18;13.00;99.90
20504;DHT22;10410;51.046;6.980;2023-09-30T08:07:21;13.10;99.90
20504;DHT22;10410;51.046;6.980;2023-09-30T08:14:22;13.30;99.90
20504;DHT22;10410;51.046;6.980;2023-09-30T08:21:22;13.50;99.90
20504;DHT22;10410;51.046;6.980;2023-09-30T08:28:23;13.70;99.90
20504;DHT22;10410;51.046;6.980;2023-09-30T08:35:23;14.00;99.90
20504;DHT22;10410;51.046;6.980;2023-09-30T08:42:26;14.10;99.90
20504;DHT22;10410;51.046;6.980;2023-09-30T08:49:38;14.20;99.90
20504;DHT22;10410;51.046;6.980;2023-09-30T08:56:41;14.50;99.90
20504;DHT22;10410;51.046;6.980;2023-09-30T09:03:43;14.70;99.90
20504;DHT22;10410;51.046;6.980;2023-09-30T09:10:55;14.90;99.90
20504;DHT22;10410;51.046;6.980;2023-09-30T09:17:58;15.10;99.90
20504;DHT22;10410;51.046;6.980;2023-09-30T09:24:59;15.20;99.90
20504;DHT22;10410;51.046;6.980;2023-09-30T09:32:13;15.50;99.90
20504;DHT22;10410;51.046;6.980;2023-09-30T09:39:14;15.70;99.90
20504;DHT22;10410;51.046;6.980;2023-09-30T09:46:16;15.80;99.90
20504;DHT22;10410;51.046;6.980;2023-09-30T09:53:18;16.00;99.90
20504;DHT22;10410;51.046;6.980;2023-09-30T10:00:25;16.20;99.90
20504;DHT22;10410;51.046;6.980;2023-09-30T10:07:28;16.40;99.90
20504;DHT22;10410;51.046;6.980;2023-09-30T10:14:31;16.60;99.90
20504;DHT22;10410;51.046;6.980;2023-09-30T10:21:36;16.70;99.90
20504;DHT22;10410;51.046;6.980;2023-09-30T10:42:47;16.90;99.90
20504;DHT22;10410;51.046;6.980;2023-09-30T10:49:50;17.10;99.90
20504;DHT22;10410;51.046;6.980;2023-09-30T10:56:51;17.30;99.90
20504;DHT22;10410;51.046;6.980;2023-09-30T11:03:59;17.40;99.90
20504;DHT22;10410;51.046;6.980;2023-09-30T11:11:03;17.70;99.90
20504;DHT22;10410;51.046;6.980;2023-09-30T11:18:23;17.70;99.90
20504;DHT22;10410;51.046;6.980;2023-09-30T11:25:23;17.80;99.90
20504;DHT22;10410;51.046;6.980;2023-09-30T11:32:26;17.90;99.90
20504;DHT22;10410;51.046;6.980;2023-09-30T11:39:28;17.90;99.90
20504;DHT22;10410;51.046;6.980;2023-09-30T11:46:29;18.10;99.90
20504;DHT22;10410;51.046;6.980;2023-09-30T11:53:31;18.20;99.90
20504;DHT22;10410;51.046;6.980;2023-09-30T12:00:32;18.40;99.90
20504;DHT22;10410;51.046;6.980;2023-09-30T12:07:34;18.50;99.90
20504;DHT22;10410;51.046;6.980;2023-09-30T12:14:35;18.60;99.90
20504;DHT22;10410;51.046;6.980;2023-09-30T12:21:36;18.70;99.90
20504;DHT22;10410;51.046;6.980;2023-09-30T12:28:37;18.90;99.90
20504;DHT22;10410;51.046;6.980;2023-09-30T12:35:37;19.20;99.90
20504;DHT22;10410;51.046;6.980;2023-09-30T12:42:38;19.50;99.90
20504;DHT22;10410;51.046;6.980;2023-09-30T12:49:38;19.70;99.90
20504;DHT22;10410;51.046;6.980;2023-09-30T12:56:39;19.90;99.90
20504;DHT22;10410;51.046;6.980;2023-09-30T13:03:39;20.00;99.90
20504;DHT22;10410;51.046;6.980;2023-09-30T13:10:40;20.10;99.90
20504;DHT22;10410;51.046;6.980;2023-09-30T13:17:40;20.00;99.90
20504;DHT22;10410;51.046;6.980;2023-09-30T13:24:41;20.40;99.90
20504;DHT22;10410;51.046;6.980;2023-09-30T13:31:42;20.90;99.90
20504;DHT22;10410;51.046;6.980;2023-09-30T13:38:43;20.90;99.90
20504;DHT22;10410;51.046;6.980;2023-09-30T13:45:44;20.70;99.90
20504;DHT22;10410;51.046;6.980;2023-09-30T13:52:44;20.90;99.90
20504;DHT22;10410;51.046;6.980;2023-09-30T13:59:45;21.20;99.90
20504;DHT22;10410;51.046;6.980;2023-09-30T14:06:46;21.30;99.90
20504;DHT22;10410;51.046;6.980;2023-09-30T14:13:48;21.20;99.90
20504;DHT22;10410;51.046;6.980;2023-09-30T14:20:49;21.10;99.90
20504;DHT22;10410;51.046;6.980;2023-09-30T14:27:50;21.00;99.90
20504;DHT22;10410;51.046;6.980;2023-09-30T14:34:50;21.00;99.90
20504;DHT22;10410;51.046;6.980;2023-09-30T14:41:51;21.00;99.90
20504;DHT22;10410;51.046;6.980;2023-09-30T14:48:52;21.00;99.90
20504;DHT22;10410;51.046;6.980;2023-09-30T14:55:52;21.10;99.90
20504;DHT22;10410;51.046;6.980;2023-09-30T15:02:52;21.40;99.90
20504;DHT22;10410;51.046;6.980;2023-09-30T15:09:54;21.40;99.90
20504;DHT22;10410;51.046;6.980;2023-09-30T15:16:55;21.40;99.90
20504;DHT22;10410;51.046;6.980;2023-09-30T15:23:56;21.20;99.90
20504;DHT22;10410;51.046;6.980;2023-09-30T15:30:57;21.20;99.90
20504;DHT22;10410;51.046;6.980;2023-09-30T15:37:58;20.80;99.90
20504;DHT22;10410;51.046;6.980;2023-09-30T15:44:58;20.40;99.90
20504;DHT22;10410;51.046;6.980;2023-09-30T15:51:59;20.20;99.90
20504;DHT22;10410;51.046;6.980;2023-09-30T15:59:00;20.10;99.90
20504;DHT22;10410;51.046;6.980;2023-09-30T16:06:04;20.10;99.90
20504;DHT22;10410;51.046;6.980;2023-09-30T16:13:06;19.90;99.90
20504;DHT22;10410;51.046;6.980;2023-09-30T16:20:07;19.70;99.90
20504;DHT22;10410;51.046;6.980;2023-09-30T16:27:08;19.50;99.90
20504;DHT22;10410;51.046;6.980;2023-09-30T16:34:09;19.30;99.90
20504;DHT22;10410;51.046;6.980;2023-09-30T16:41:09;19.10;99.90
20504;DHT22;10410;51.046;6.980;2023-09-30T16:48:10;19.00;99.90
20504;DHT22;10410;51.046;6.980;2023-09-30T16:55:10;18.90;99.90
20504;DHT22;10410;51.046;6.980;2023-09-30T17:02:12;18.80;99.90
20504;DHT22;10410;51.046;6.980;2023-09-30T17:09:13;18.70;99.90
20504;DHT22;10410;51.046;6.980;2023-09-30T17:16:22;18.50;99.90
20504;DHT22;10410;51.046;6.980;2023-09-30T17:23:23;18.20;99.90
20504;DHT22;10410;51.046;6.980;2023-09-30T17:30:23;18.00;99.90
20504;DHT22;10410;51.046;6.980;2023-09-30T17:37:40;17.90;99.90
20504;DHT22;10410;51.046;6.980;2023-09-30T17:44:40;17.70;99.90
20504;DHT22;10410;51.046;6.980;2023-09-30T17:51:40;17.50;99.90
20504;DHT22;10410;51.046;6.980;2023-09-30T17:58:46;17.30;99.90
20504;DHT22;10410;51.046;6.980;2023-09-30T18:05:46;17.00;99.90
20504;DHT22;10410;51.046;6.980;2023-09-30T18:12:48;16.80;99.90
20504;DHT22;10410;51.046;6.980;2023-09-30T18:19:48;16.70;99.90
20504;DHT22;10410;51.046;6.980;2023-09-30T18:26:49;16.60;99.90
20504;DHT22;10410;51.046;6.980;2023-09-30T18:33:50;16.40;99.90
20504;DHT22;10410;51.046;6.980;2023-09-30T18:40:50;16.20;99.90
20504;DHT22;10410;51.046;6.980;2023-09-30T18:47:53;16.10;99.90
20504;DHT22;10410;51.046;6.980;2023-09-30T18:54:53;16.00;99.90
20504;DHT22;10410;51.046;6.980;2023-09-30T19:01:54;15.80;99.90
20504;DHT22;10410;51.046;6.980;2023-09-30T19:08:55;15.60;99.90
20504;DHT22;10410;51.046;6.980;2023-09-30T19:15:55;15.50;99.90
20504;DHT22;10410;51.046;6.980;2023-09-30T19:22:56;15.30;99.90
20504;DHT22;10410;51.046;6.980;2023-09-30T19:29:57;15.30;99.90
20504;DHT22;10410;51.046;6.980;2023-09-30T19:36:57;15.10;99.90
20504;DHT22;10410;51.046;6.980;2023-09-30T19:43:58;15.00;99.90
20504;DHT22;10410;51.046;6.980;2023-09-30T19:50:59;14.90;99.90
20504;DHT22;10410;51.046;6.980;2023-09-30T19:58:00;14.80;99.90
20504;DHT22;10410;51.046;6.980;2023-09-30T20:05:01;14.70;99.90
20504;DHT22;10410;51.046;6.980;2023-09-30T20:12:02;14.60;99.90
20504;DHT22;10410;51.046;6.980;2023-09-30T20:19:03;14.50;99.90
20504;DHT22;10410;51.046;6.980;2023-09-30T20:26:04;14.50;99.90
20504;DHT22;10410;51.046;6.980;2023-09-30T20:33:06;14.40;99.90
20504;DHT22;10410;51.046;6.980;2023-09-30T20:40:08;14.40;99.90
20504;DHT22;10410;51.046;6.980;2023-09-30T20:47:10;14.30;99.90
20504;DHT22;10410;51.046;6.980;2023-09-30T20:54:11;14.20;99.90
20504;DHT22;10410;51.046;6.980;2023-09-30T21:01:12;14.10;99.90
20504;DHT22;10410;51.046;6.980;2023-09-30T21:08:13;14.00;99.90
20504;DHT22;10410;51.046;6.980;2023-09-30T21:15:20;13.90;99.90
20504;DHT22;10410;51.046;6.980;2023-09-30T21:22:20;13.80;99.90
20504;DHT22;10410;51.046;6.980;2023-09-30T21:29:20;13.60;99.90
20504;DHT22;10410;51.046;6.980;2023-09-30T21:36:21;13.50;99.90
20504;DHT22;10410;51.046;6.980;2023-09-30T21:43:22;13.40;99.90
20504;DHT22;10410;51.046;6.980;2023-09-30T21:50:23;13.40;99.90
20504;DHT22;10410;51.046;6.980;2023-09-30T21:57:23;13.30;99.90
20504;DHT22;10410;51.046;6.980;2023-09-30T22:04:24;13.20;99.90
20504;DHT22;10410;51.046;6.980;2023-09-30T22:11:24;13.20;99.90
20504;DHT22;10410;51.046;6.980;2023-09-30T22:18:25;13.10;99.90
20504;DHT22;10410;51.046;6.980;2023-09-30T22:25:26;13.00;99.90
20504;DHT22;10410;51.046;6.980;2023-09-30T22:32:26;13.00;99.90
20504;DHT22;10410;51.046;6.980;2023-09-30T22:39:26;12.90;99.90
20504;DHT22;10410;51.046;6.980;2023-09-30T22:46:27;12.90;99.90
20504;DHT22;10410;51.046;6.980;2023-09-30T22:53:27;12.80;99.90
20504;DHT22;10410;51.046;6.980;2023-09-30T23:00:29;12.70;99.90
20504;DHT22;10410;51.046;6.980;2023-09-30T23:07:31;12.60;99.90
20504;DHT22;10410;51.046;6.980;2023-09-30T23:14:32;12.50;99.90
20504;DHT22;10410;51.046;6.980;2023-09-30T23:21:33;12.40;99.90
20504;DHT22;10410;51.046;6.980;2023-09-30T23:28:36;12.30;99.90
20504;DHT22;10410;51.046;6.980;2023-09-30T23:35:38;12.20;99.90
20504;DHT22;10410;51.046;6.980;2023-09-30T23:42:39;12.20;99.90
20504;DHT22;10410;51.046;6.980;2023-09-30T23:49:42;12.10;99.90
20504;DHT22;10410;51.046;6.980;2023-09-30T23:56:42;12.00;99.90
